Terminal Aerodrome Forecast
Issued by NWS

Home | Current Version | Previous Version | Text Only | Print | Product List | Glossary On
Versions: 1 2 3 4 5 6 7 8 9 10 11 12 13 14 15
375
FTUS43 KEAX 051720
TAFMKC
TAF
KMKC 051720Z 0518/0618 17012KT P6SM SKC
     FM060000 16006KT P6SM BKN150
     FM060600 31010KT P6SM BKN035
     FM061100 34011KT P6SM SCT120=

USA.gov is the U.S. government's official web portal to all federal, state and local government web resources and services.